Time;durP1;ratioP1;P1;durP2;ratioP2;P2;SDS_P1;SDS_P2;PMS_P1;PMS_P2;Temp;Humidity;BMP_temperature;BMP_pressure;BME280_temperature;BME280_humidity;BME280_pressure;Samples;Min_cycle;Max_cycle;Signal;HPM_P1;HPM_P2
2023/04/17 00:00:28;;;;;;;;;;;;;;;7.67;100.00;100434.73;109363;1256;73171;-74
2023/04/17 00:03:00;;;;;;;;;;;;;;;7.63;100.00;100431.65;109366;1257;63434;-72
2023/04/17 00:05:30;;;;;;;;;;;;;;;7.57;100.00;100431.46;109359;1259;58652;-73
2023/04/17 00:08:01;;;;;;;;;;;;;;;7.54;100.00;100435.09;109369;1255;74433;-72
2023/04/17 00:10:29;;;;;;;;;;;;;;;7.56;100.00;100438.23;109382;1257;69100;-72
2023/04/17 00:12:57;;;;;;;;;;;;;;;7.59;100.00;100436.85;109365;1257;73779;-76
2023/04/17 00:15:25;;;;;;;;;;;;;;;7.58;100.00;100437.97;109339;1257;63211;-72
2023/04/17 00:17:54;;;;;;;;;;;;;;;7.58;100.00;100440.39;109351;1257;58641;-73
2023/04/17 00:20:22;;;;;;;;;;;;;;;7.62;100.00;100438.98;109394;1256;72892;-73
2023/04/17 00:22:50;;;;;;;;;;;;;;;7.62;100.00;100441.04;109384;1256;67038;-74
2023/04/17 00:25:18;;;;;;;;;;;;;;;7.60;100.00;100439.64;109346;1255;72440;-74
2023/04/17 00:27:46;;;;;;;;;;;;;;;7.63;100.00;100439.05;109267;1256;63168;-73
2023/04/17 00:30:14;;;;;;;;;;;;;;;7.63;100.00;100439.12;109315;1255;58173;-74
2023/04/17 00:32:43;;;;;;;;;;;;;;;7.66;100.00;100442.67;109319;1255;74237;-73
2023/04/17 00:35:11;;;;;;;;;;;;;;;7.67;100.00;100441.02;109322;1256;67005;-73
2023/04/17 00:37:39;;;;;;;;;;;;;;;7.70;100.00;100442.98;109308;1256;73057;-74
2023/04/17 00:40:09;;;;;;;;;;;;;;;7.73;100.00;100444.85;109291;1257;58243;-74
2023/04/17 00:42:37;;;;;;;;;;;;;;;7.73;100.00;100440.69;109338;1256;59417;-73
2023/04/17 00:45:09;;;;;;;;;;;;;;;7.73;100.00;100441.64;109291;1257;72787;-73
2023/04/17 00:47:38;;;;;;;;;;;;;;;7.69;100.00;100439.40;109319;1256;67007;-72
2023/04/17 00:50:06;;;;;;;;;;;;;;;7.64;100.00;100437.61;109175;1256;71681;-74
2023/04/17 00:52:34;;;;;;;;;;;;;;;7.65;100.00;100440.83;109199;1256;62330;-73
2023/04/17 00:55:03;;;;;;;;;;;;;;;7.69;100.00;100437.83;109319;1257;60876;-74
2023/04/17 00:57:31;;;;;;;;;;;;;;;7.70;100.00;100437.26;109340;1255;74172;-74
2023/04/17 00:59:59;;;;;;;;;;;;;;;7.73;100.00;100438.64;109316;1257;67972;-75
2023/04/17 01:02:27;;;;;;;;;;;;;;;7.77;100.00;100438.63;109298;1255;73658;-75
2023/04/17 01:04:55;;;;;;;;;;;;;;;7.83;100.00;100437.94;109162;1256;59054;-75
2023/04/17 01:07:23;;;;;;;;;;;;;;;7.83;100.00;100434.71;109204;1256;58256;-75
2023/04/17 01:09:52;;;;;;;;;;;;;;;7.80;100.00;100438.16;109225;1256;74027;-73
2023/04/17 01:12:21;;;;;;;;;;;;;;;7.79;100.00;100435.27;109213;1257;65687;-75
2023/04/17 01:14:54;;;;;;;;;;;;;;;7.79;100.00;100432.77;109204;1256;71869;-73
2023/04/17 01:17:22;;;;;;;;;;;;;;;7.80;100.00;100432.15;109293;1256;59672;-72
2023/04/17 01:19:50;;;;;;;;;;;;;;;7.81;100.00;100433.91;109307;1256;59456;-74
2023/04/17 01:22:21;;;;;;;;;;;;;;;7.79;100.00;100433.67;109206;1257;72583;-74
2023/04/17 01:24:51;;;;;;;;;;;;;;;7.81;100.00;100434.78;109182;1257;66847;-73
2023/04/17 01:27:21;;;;;;;;;;;;;;;7.82;100.00;100434.46;109146;1257;73625;-73
2023/04/17 01:29:49;;;;;;;;;;;;;;;7.85;100.00;100434.63;109133;1256;59971;-72
2023/04/17 01:32:18;;;;;;;;;;;;;;;7.90;100.00;100436.67;109129;1257;58461;-72
2023/04/17 01:34:46;;;;;;;;;;;;;;;7.92;100.00;100435.83;109152;1257;73316;-72
2023/04/17 01:37:14;;;;;;;;;;;;;;;7.98;100.00;100441.56;109154;1257;67123;-73
2023/04/17 01:39:42;;;;;;;;;;;;;;;8.03;100.00;100437.95;109225;1257;72804;-72
2023/04/17 01:42:10;;;;;;;;;;;;;;;8.05;100.00;100435.75;109244;1257;60592;-73
2023/04/17 01:44:38;;;;;;;;;;;;;;;8.04;100.00;100437.58;109256;1257;61512;-74
2023/04/17 01:47:06;;;;;;;;;;;;;;;8.05;100.00;100434.27;109173;1257;72737;-73
2023/04/17 01:49:34;;;;;;;;;;;;;;;8.05;100.00;100433.13;109289;1256;66129;-72
2023/04/17 01:52:02;;;;;;;;;;;;;;;8.01;100.00;100432.15;109130;1257;71930;-72
2023/04/17 01:54:30;;;;;;;;;;;;;;;7.97;100.00;100429.58;109124;1257;60049;-73
2023/04/17 01:56:58;;;;;;;;;;;;;;;7.95;100.00;100433.42;109164;1257;60983;-74
2023/04/17 01:59:26;;;;;;;;;;;;;;;7.89;100.00;100434.65;109159;1256;71904;-73
2023/04/17 02:01:55;;;;;;;;;;;;;;;7.89;100.00;100439.10;109143;1257;68161;-72
2023/04/17 02:04:23;;;;;;;;;;;;;;;7.89;100.00;100439.60;109265;1256;71991;-73
2023/04/17 02:06:51;;;;;;;;;;;;;;;7.90;100.00;100436.95;109255;1256;63339;-72
2023/04/17 02:09:19;;;;;;;;;;;;;;;7.94;100.00;100437.15;109260;1256;59185;-73
2023/04/17 02:11:47;;;;;;;;;;;;;;;7.93;100.00;100435.48;109260;1257;71648;-74
2023/04/17 02:14:16;;;;;;;;;;;;;;;7.90;100.00;100436.75;109292;1256;66969;-75
2023/04/17 02:16:47;;;;;;;;;;;;;;;7.90;100.00;100439.97;109151;1256;72061;-75
2023/04/17 02:19:15;;;;;;;;;;;;;;;7.91;100.00;100441.16;109212;1256;59938;-76
2023/04/17 02:21:43;;;;;;;;;;;;;;;7.95;100.00;100444.18;109266;1256;59546;-74
2023/04/17 02:24:11;;;;;;;;;;;;;;;8.00;100.00;100440.25;109257;1256;74106;-74
2023/04/17 02:26:39;;;;;;;;;;;;;;;8.03;100.00;100449.29;109261;1256;66774;-73
2023/04/17 02:29:07;;;;;;;;;;;;;;;8.09;100.00;100446.98;109238;1256;73205;-75
2023/04/17 02:31:36;;;;;;;;;;;;;;;8.20;100.00;100450.92;109116;1257;61587;-74
2023/04/17 02:34:04;;;;;;;;;;;;;;;8.27;100.00;100450.83;109237;1257;59012;-73
2023/04/17 02:36:32;;;;;;;;;;;;;;;8.25;100.00;100455.20;109242;1256;72527;-74
2023/04/17 02:39:00;;;;;;;;;;;;;;;8.23;100.00;100458.20;109180;1257;65990;-73
2023/04/17 02:41:28;;;;;;;;;;;;;;;8.28;100.00;100457.19;109125;1257;72844;-73
2023/04/17 02:43:59;;;;;;;;;;;;;;;8.34;100.00;100458.94;109128;1257;62892;-75
2023/04/17 02:46:27;;;;;;;;;;;;;;;8.43;100.00;100461.98;109157;1257;60385;-73
2023/04/17 02:48:55;;;;;;;;;;;;;;;8.51;100.00;100461.79;109239;1256;74793;-74
2023/04/17 02:51:23;;;;;;;;;;;;;;;8.57;100.00;100461.38;109280;1256;68227;-74
2023/04/17 02:53:51;;;;;;;;;;;;;;;8.62;100.00;100461.96;109156;1257;73079;-73
2023/04/17 02:56:19;;;;;;;;;;;;;;;8.63;100.00;100462.69;109118;1257;58755;-74
2023/04/17 02:58:47;;;;;;;;;;;;;;;8.64;100.00;100462.34;109153;1262;58955;-73
2023/04/17 03:01:15;;;;;;;;;;;;;;;8.65;100.00;100467.21;109135;1257;73495;-72
2023/04/17 03:03:44;;;;;;;;;;;;;;;8.70;100.00;100470.15;109182;1257;65956;-73
2023/04/17 03:06:13;;;;;;;;;;;;;;;8.73;100.00;100470.58;109147;1257;70266;-73
2023/04/17 03:08:42;;;;;;;;;;;;;;;8.68;100.00;100474.04;109119;1257;61537;-74
2023/04/17 03:11:10;;;;;;;;;;;;;;;8.68;100.00;100475.08;109139;1257;59804;-75
2023/04/17 03:13:38;;;;;;;;;;;;;;;8.72;100.00;100473.39;109149;1257;72642;-74
2023/04/17 03:16:06;;;;;;;;;;;;;;;8.72;100.00;100479.30;109267;1256;66406;-75
2023/04/17 03:18:38;;;;;;;;;;;;;;;8.68;100.00;100483.11;109153;1257;71679;-74
2023/04/17 03:21:06;;;;;;;;;;;;;;;8.63;100.00;100481.34;109153;1257;61823;-73
2023/04/17 03:23:36;;;;;;;;;;;;;;;8.56;100.00;100486.38;109130;1257;61376;-73
2023/04/17 03:26:05;;;;;;;;;;;;;;;8.57;100.00;100488.39;109038;1259;75129;-73
2023/04/17 03:28:33;;;;;;;;;;;;;;;8.62;100.00;100491.59;109159;1257;67429;-73
2023/04/17 03:31:02;;;;;;;;;;;;;;;8.65;100.00;100490.81;109146;1257;71487;-72
2023/04/17 03:33:31;;;;;;;;;;;;;;;8.66;100.00;100496.05;109113;1257;60503;-73
2023/04/17 03:35:58;;;;;;;;;;;;;;;8.66;100.00;100498.03;109146;1257;58995;-72
2023/04/17 03:38:26;;;;;;;;;;;;;;;8.70;100.00;100498.75;109150;1257;72853;-73
2023/04/17 03:40:54;;;;;;;;;;;;;;;8.69;100.00;100500.38;109154;1257;67872;-73
2023/04/17 03:43:23;;;;;;;;;;;;;;;8.67;100.00;100505.20;109120;1257;73251;-71
2023/04/17 03:45:51;;;;;;;;;;;;;;;8.70;100.00;100509.80;109083;1257;61809;-75
2023/04/17 03:48:20;;;;;;;;;;;;;;;8.75;100.00;100513.96;109109;1257;60852;-73
2023/04/17 03:50:49;;;;;;;;;;;;;;;8.80;100.00;100515.66;109107;1257;72781;-73
2023/04/17 03:53:18;;;;;;;;;;;;;;;8.76;100.00;100513.92;109069;1257;68169;-73
2023/04/17 03:55:47;;;;;;;;;;;;;;;8.71;100.00;100518.69;109030;1257;71820;-74
2023/04/17 03:58:23;;;;;;;;;;;;;;;8.69;100.00;100520.27;109076;1257;63295;-72
2023/04/17 04:00:54;;;;;;;;;;;;;;;8.70;100.00;100517.76;109132;1257;60067;-72
2023/04/17 04:03:24;;;;;;;;;;;;;;;8.74;100.00;100516.11;109117;1257;75125;-72
2023/04/17 04:05:53;;;;;;;;;;;;;;;8.80;100.00;100513.39;109155;1257;67857;-73
2023/04/17 04:08:20;;;;;;;;;;;;;;;8.83;99.97;100514.77;109148;1257;73973;-74
2023/04/17 04:10:51;;;;;;;;;;;;;;;8.85;99.27;100518.64;109098;1257;58670;-72
2023/04/17 04:13:23;;;;;;;;;;;;;;;8.85;98.89;100516.25;109129;1257;58036;-73
2023/04/17 04:15:57;;;;;;;;;;;;;;;8.86;98.56;100517.85;109143;1257;74627;-72
2023/04/17 04:18:28;;;;;;;;;;;;;;;8.87;97.98;100513.76;109168;1257;65647;-73
2023/04/17 04:20:56;;;;;;;;;;;;;;;8.89;97.30;100514.23;109152;1257;73509;-72
2023/04/17 04:23:29;;;;;;;;;;;;;;;8.94;97.12;100516.05;109085;1257;61331;-73
2023/04/17 04:26:00;;;;;;;;;;;;;;;9.00;96.68;100518.56;109090;1257;58794;-73
2023/04/17 04:28:39;;;;;;;;;;;;;;;9.00;95.38;100521.16;109104;1257;74391;-72
2023/04/17 04:31:09;;;;;;;;;;;;;;;8.97;94.46;100524.53;109082;1257;67097;-72
2023/04/17 04:33:39;;;;;;;;;;;;;;;8.89;93.21;100528.35;109041;1257;73003;-71
2023/04/17 04:36:08;;;;;;;;;;;;;;;8.85;93.41;100528.21;109050;1258;60271;-74
2023/04/17 04:38:36;;;;;;;;;;;;;;;8.85;92.50;100525.16;109004;1257;58962;-72
2023/04/17 04:41:12;;;;;;;;;;;;;;;8.84;91.68;100525.48;109097;1257;73651;-73
2023/04/17 04:43:41;;;;;;;;;;;;;;;8.82;90.68;100529.08;109107;1257;69137;-72
2023/04/17 04:46:10;;;;;;;;;;;;;;;8.81;90.15;100533.58;109144;1257;73536;-73
2023/04/17 04:48:42;;;;;;;;;;;;;;;8.83;90.05;100538.54;109069;1257;59762;-74
2023/04/17 04:51:12;;;;;;;;;;;;;;;8.80;88.47;100538.45;109078;1257;58600;-73
2023/04/17 04:53:41;;;;;;;;;;;;;;;8.74;87.64;100538.89;109094;1257;74779;-71
2023/04/17 04:56:10;;;;;;;;;;;;;;;8.73;87.59;100537.58;109104;1257;66303;-72
2023/04/17 04:58:39;;;;;;;;;;;;;;;8.72;86.22;100541.19;109093;1257;72682;-72
2023/04/17 05:01:09;;;;;;;;;;;;;;;8.71;85.94;100535.91;109085;1257;59416;-70
2023/04/17 05:03:44;;;;;;;;;;;;;;;8.72;85.14;100535.23;109124;1257;61061;-71
2023/04/17 05:06:19;;;;;;;;;;;;;;;8.70;84.44;100534.96;109115;1257;73072;-71
2023/04/17 05:08:50;;;;;;;;;;;;;;;8.66;83.50;100537.47;109096;1257;68265;-73
2023/04/17 05:11:19;;;;;;;;;;;;;;;8.64;83.16;100539.94;109053;1257;72655;-71
2023/04/17 05:13:47;;;;;;;;;;;;;;;8.66;83.63;100539.69;109091;1257;61716;-70
2023/04/17 05:16:20;;;;;;;;;;;;;;;8.71;83.30;100541.45;109114;1257;58304;-75
2023/04/17 05:18:48;;;;;;;;;;;;;;;8.73;82.15;100546.00;109130;1257;74851;-74
2023/04/17 05:21:21;;;;;;;;;;;;;;;8.71;81.66;100543.09;109113;1257;67454;-73
2023/04/17 05:23:51;;;;;;;;;;;;;;;8.68;81.05;100545.95;109047;1259;73598;-73
2023/04/17 05:26:21;;;;;;;;;;;;;;;8.66;80.16;100550.92;109069;1258;59077;-69
2023/04/17 05:28:51;;;;;;;;;;;;;;;8.66;80.00;100552.48;109081;1259;58078;-70
2023/04/17 05:31:23;;;;;;;;;;;;;;;8.67;79.28;100550.75;109059;1259;76093;-74
2023/04/17 05:33:53;;;;;;;;;;;;;;;8.67;78.89;100561.85;109041;1259;68026;-75
2023/04/17 05:36:25;;;;;;;;;;;;;;;8.69;78.08;100559.48;109064;1260;72555;-73
2023/04/17 05:38:57;;;;;;;;;;;;;;;8.73;77.28;100566.05;109034;1259;60062;-73
2023/04/17 05:41:26;;;;;;;;;;;;;;;8.74;76.06;100564.84;109114;1258;60963;-74
2023/04/17 05:43:56;;;;;;;;;;;;;;;8.75;75.77;100566.04;109118;1259;75819;-73
2023/04/17 05:46:30;;;;;;;;;;;;;;;8.81;75.84;100569.48;109110;1258;67923;-72
2023/04/17 05:49:00;;;;;;;;;;;;;;;8.84;75.20;100567.02;108970;1260;73668;-72
2023/04/17 05:51:32;;;;;;;;;;;;;;;8.86;75.12;100574.35;109012;1259;60146;-72
2023/04/17 05:54:03;;;;;;;;;;;;;;;8.88;74.06;100571.23;109038;1259;61008;-71
2023/04/17 05:56:35;;;;;;;;;;;;;;;8.88;73.57;100574.29;109063;1259;71433;-73
2023/04/17 05:59:06;;;;;;;;;;;;;;;8.88;73.41;100570.20;109131;1260;66863;-73
2023/04/17 06:01:38;;;;;;;;;;;;;;;8.86;73.59;100570.23;109049;1259;73324;-71
2023/04/17 06:04:08;;;;;;;;;;;;;;;8.87;73.61;100566.75;109051;1259;58298;-74
2023/04/17 06:06:37;;;;;;;;;;;;;;;8.88;73.39;100572.46;109103;1259;60160;-70
2023/04/17 06:09:08;;;;;;;;;;;;;;;8.90;72.94;100573.79;109048;1258;74897;-71
2023/04/17 06:11:39;;;;;;;;;;;;;;;8.92;72.69;100573.15;109035;1257;69771;-74
2023/04/17 06:14:08;;;;;;;;;;;;;;;8.93;73.23;100575.27;108346;1259;879261;-72
2023/04/17 06:16:39;;;;;;;;;;;;;;;8.97;73.87;100575.30;109022;1258;58081;-73
2023/04/17 06:19:10;;;;;;;;;;;;;;;9.00;74.23;100573.75;109075;1258;59979;-72
2023/04/17 06:29:17;;;;;;;;;;;;;;;9.14;75.40;100586.85;102415;1291;599516;-71
2023/04/17 06:31:46;;;;;;;;;;;;;;;9.17;75.68;100591.20;104578;1267;61502;-70
2023/04/17 06:34:16;;;;;;;;;;;;;;;9.21;75.35;100589.08;104658;1271;60160;-74
2023/04/17 06:36:45;;;;;;;;;;;;;;;9.24;74.58;100580.42;104817;1270;71493;-72
2023/04/17 06:39:15;;;;;;;;;;;;;;;9.25;73.44;100584.59;104723;1270;67477;-72
2023/04/17 06:41:43;;;;;;;;;;;;;;;9.23;72.26;100588.92;104703;1270;74252;-70
2023/04/17 06:44:11;;;;;;;;;;;;;;;9.20;72.30;100587.23;104596;1268;59948;-73
2023/04/17 06:46:45;;;;;;;;;;;;;;;9.16;72.62;100592.00;104832;1264;60455;-74
2023/04/17 06:49:13;;;;;;;;;;;;;;;9.14;73.40;100594.73;105057;1264;72973;-72
2023/04/17 06:51:44;;;;;;;;;;;;;;;9.12;73.75;100598.09;104991;1267;68452;-71
2023/04/17 06:54:13;;;;;;;;;;;;;;;9.15;74.47;100596.55;104981;1264;74233;-70
2023/04/17 06:56:41;;;;;;;;;;;;;;;9.18;73.77;100596.89;104947;1266;60427;-72
2023/04/17 06:59:09;;;;;;;;;;;;;;;9.20;71.79;100599.95;104661;1268;60673;-71
2023/04/17 07:01:39;;;;;;;;;;;;;;;9.17;70.16;100599.54;104960;1265;73936;-73
2023/04/17 07:04:08;;;;;;;;;;;;;;;9.17;70.48;100600.61;104955;1268;67955;-74
2023/04/17 07:06:38;;;;;;;;;;;;;;;9.18;69.17;100595.29;105156;1265;73176;-74
2023/04/17 07:09:06;;;;;;;;;;;;;;;9.18;68.58;100599.54;105092;1259;59671;-75
2023/04/17 07:11:34;;;;;;;;;;;;;;;9.15;67.97;100601.50;105643;1256;61715;-72
2023/04/17 07:14:02;;;;;;;;;;;;;;;9.13;68.23;100602.47;105416;1260;73003;-74
2023/04/17 07:16:32;;;;;;;;;;;;;;;9.11;67.48;100606.03;105055;1258;69136;-75
2023/04/17 07:19:00;;;;;;;;;;;;;;;9.10;67.71;100598.33;105197;1256;74521;-72
2023/04/17 07:21:28;;;;;;;;;;;;;;;9.11;67.37;100602.48;105326;1258;60435;-76
2023/04/17 07:23:56;;;;;;;;;;;;;;;9.09;67.71;100604.20;105918;1257;59628;-73
2023/04/17 07:26:25;;;;;;;;;;;;;;;9.10;67.63;100604.02;105410;1262;75742;-73
2023/04/17 07:28:53;;;;;;;;;;;;;;;9.11;67.93;100604.91;105405;1257;68887;-73
2023/04/17 07:31:21;;;;;;;;;;;;;;;9.11;67.78;100604.16;105565;1258;73718;-73
2023/04/17 07:33:49;;;;;;;;;;;;;;;9.12;68.29;100606.48;105135;1260;60496;-76
2023/04/17 07:36:17;;;;;;;;;;;;;;;9.12;68.18;100612.79;104989;1257;60764;-78
2023/04/17 07:38:46;;;;;;;;;;;;;;;9.11;68.34;100610.52;105190;1259;72980;-71
2023/04/17 07:41:15;;;;;;;;;;;;;;;9.10;69.07;100612.66;105382;1262;66899;-71
2023/04/17 07:43:43;;;;;;;;;;;;;;;9.10;69.71;100611.83;105215;1258;73612;-73
2023/04/17 07:46:11;;;;;;;;;;;;;;;9.11;70.15;100615.29;105245;1262;60302;-74
2023/04/17 07:48:39;;;;;;;;;;;;;;;9.13;70.47;100616.41;105629;1262;60913;-72
2023/04/17 07:51:07;;;;;;;;;;;;;;;9.20;70.99;100615.88;105249;1262;73428;-72
2023/04/17 07:53:36;;;;;;;;;;;;;;;9.30;71.02;100618.86;105218;1262;66598;-72
2023/04/17 07:56:05;;;;;;;;;;;;;;;9.39;70.88;100621.52;104984;1262;71940;-73
2023/04/17 07:58:34;;;;;;;;;;;;;;;9.47;70.18;100617.05;105515;1262;61515;-73
2023/04/17 08:01:04;;;;;;;;;;;;;;;9.52;69.22;100615.53;105456;1253;59662;-72
2023/04/17 08:03:32;;;;;;;;;;;;;;;9.54;68.07;100617.91;105715;1257;74946;-73
2023/04/17 08:06:01;;;;;;;;;;;;;;;9.54;67.59;100617.42;105495;1256;69648;-74
2023/04/17 08:08:29;;;;;;;;;;;;;;;9.52;67.85;100612.43;105693;1253;72695;-75
2023/04/17 08:10:57;;;;;;;;;;;;;;;9.54;68.15;100607.82;105551;1257;60841;-74
2023/04/17 08:13:26;;;;;;;;;;;;;;;9.60;68.69;100605.00;105725;1253;60282;-73
2023/04/17 08:15:54;;;;;;;;;;;;;;;9.67;68.19;100607.41;105551;1257;74445;-72
2023/04/17 08:18:22;;;;;;;;;;;;;;;9.73;67.89;100601.48;105571;1257;69557;-73
2023/04/17 08:20:51;;;;;;;;;;;;;;;9.78;67.11;100600.48;105456;1258;74589;-73
2023/04/17 08:23:19;;;;;;;;;;;;;;;9.78;67.16;100601.90;105614;1253;60641;-73
2023/04/17 08:25:48;;;;;;;;;;;;;;;9.78;66.78;100599.34;105483;1253;59635;-73
2023/04/17 08:28:16;;;;;;;;;;;;;;;9.81;66.69;100599.05;105629;1257;73052;-75
2023/04/17 08:30:44;;;;;;;;;;;;;;;9.88;66.54;100597.90;105538;1263;69740;-73
2023/04/17 08:33:12;;;;;;;;;;;;;;;9.93;64.83;100599.52;105205;1261;73428;-76
2023/04/17 08:35:40;;;;;;;;;;;;;;;9.96;64.17;100594.52;105669;1258;61304;-75
2023/04/17 08:38:12;;;;;;;;;;;;;;;9.99;63.79;100595.01;105639;1256;59890;-75
2023/04/17 08:40:41;;;;;;;;;;;;;;;10.02;64.44;100594.55;105244;1261;72545;-71
2023/04/17 08:43:13;;;;;;;;;;;;;;;10.05;65.12;100593.73;105311;1257;68116;-75
2023/04/17 08:45:52;;;;;;;;;;;;;;;10.09;65.32;100592.41;105252;1261;72929;-71
2023/04/17 08:48:21;;;;;;;;;;;;;;;10.15;64.96;100588.89;105064;1259;61206;-73
2023/04/17 08:50:50;;;;;;;;;;;;;;;10.20;63.77;100590.01;105324;1258;60286;-73
2023/04/17 08:53:19;;;;;;;;;;;;;;;10.23;63.15;100590.73;105435;1257;74923;-76
2023/04/17 08:55:48;;;;;;;;;;;;;;;10.27;63.28;100591.83;105492;1260;67521;-73
2023/04/17 08:58:16;;;;;;;;;;;;;;;10.30;62.62;100588.15;105178;1256;71984;-73
2023/04/17 09:00:44;;;;;;;;;;;;;;;10.30;62.62;100590.79;105418;1261;59748;-74
2023/04/17 09:03:13;;;;;;;;;;;;;;;10.32;62.82;100594.93;105196;1256;60293;-73
2023/04/17 09:05:44;;;;;;;;;;;;;;;10.35;61.55;100594.17;105262;1256;72460;-74
2023/04/17 09:08:19;;;;;;;;;;;;;;;10.34;61.06;100593.10;105199;1261;69633;-73
2023/04/17 09:10:51;;;;;;;;;;;;;;;10.33;61.45;100593.98;105459;1258;71761;-76
2023/04/17 09:13:23;;;;;;;;;;;;;;;10.31;61.76;100596.36;105420;1256;62443;-73
2023/04/17 09:16:06;;;;;;;;;;;;;;;10.32;61.87;100596.46;105488;1256;60746;-73
2023/04/17 09:18:35;;;;;;;;;;;;;;;10.31;61.37;100597.90;105273;1257;72592;-74
2023/04/17 09:21:03;;;;;;;;;;;;;;;10.29;61.72;100594.16;105326;1256;68737;-74
2023/04/17 09:23:48;;;;;;;;;;;;;;;10.29;61.34;100595.93;105134;1261;72343;-71
2023/04/17 09:26:23;;;;;;;;;;;;;;;10.29;61.75;100589.23;105186;1261;59666;-73
2023/04/17 09:29:06;;;;;;;;;;;;;;;10.29;61.51;100586.46;105463;1256;60958;-74
2023/04/17 09:31:36;;;;;;;;;;;;;;;10.31;61.96;100587.14;105934;1256;74786;-72
2023/04/17 09:34:15;;;;;;;;;;;;;;;10.32;62.35;100578.27;105508;1260;68677;-76
2023/04/17 09:36:43;;;;;;;;;;;;;;;10.35;62.35;100580.39;105249;1256;73287;-74
2023/04/17 09:39:19;;;;;;;;;;;;;;;10.39;61.89;100578.23;105212;1260;59776;-73
2023/04/17 09:41:47;;;;;;;;;;;;;;;10.41;61.81;100575.39;105469;1259;59757;-76
2023/04/17 09:44:25;;;;;;;;;;;;;;;10.44;61.16;100574.46;105772;1262;74810;-75
2023/04/17 09:46:53;;;;;;;;;;;;;;;10.49;61.45;100574.86;105560;1259;67894;-74
2023/04/17 09:49:35;;;;;;;;;;;;;;;10.55;60.95;100572.75;106065;1257;71895;-73
2023/04/17 09:52:03;;;;;;;;;;;;;;;10.64;60.69;100566.42;106184;1261;61102;-73
2023/04/17 09:54:36;;;;;;;;;;;;;;;10.70;60.10;100567.98;106213;1256;59645;-73
2023/04/17 09:57:07;;;;;;;;;;;;;;;10.77;59.85;100567.63;106571;1258;73961;-73
2023/04/17 09:59:39;;;;;;;;;;;;;;;10.83;58.89;100560.89;106356;1259;68563;-73
2023/04/17 10:02:08;;;;;;;;;;;;;;;10.90;59.13;100564.05;106396;1260;73842;-74
2023/04/17 10:04:39;;;;;;;;;;;;;;;10.98;58.09;100564.80;106319;1259;62120;-72
2023/04/17 10:07:08;;;;;;;;;;;;;;;11.05;58.10;100560.21;106461;1261;59535;-73
2023/04/17 10:09:38;;;;;;;;;;;;;;;11.12;58.10;100567.09;106670;1260;72533;-72
2023/04/17 10:12:13;;;;;;;;;;;;;;;11.23;57.80;100564.13;106432;1256;69906;-72
2023/04/17 10:14:47;;;;;;;;;;;;;;;11.37;57.09;100562.83;106668;1256;72646;-75
2023/04/17 10:17:22;;;;;;;;;;;;;;;11.49;56.19;100559.17;106698;1256;60118;-75
2023/04/17 10:19:51;;;;;;;;;;;;;;;11.60;55.87;100558.69;106712;1258;61660;-74
2023/04/17 10:22:27;;;;;;;;;;;;;;;11.71;56.31;100549.16;106569;1259;72602;-74
2023/04/17 10:25:11;;;;;;;;;;;;;;;11.83;56.33;100547.63;106373;1256;68533;-77
2023/04/17 10:27:40;;;;;;;;;;;;;;;11.94;56.63;100552.67;106212;1256;72458;-75
2023/04/17 10:30:12;;;;;;;;;;;;;;;12.04;56.47;100546.08;106748;1257;60275;-72
2023/04/17 10:32:44;;;;;;;;;;;;;;;12.15;55.54;100544.58;106243;1256;60740;-73
2023/04/17 10:35:15;;;;;;;;;;;;;;;12.22;55.29;100540.56;106458;1258;72944;-72
2023/04/17 10:37:47;;;;;;;;;;;;;;;12.33;55.24;100539.09;106193;1259;66250;-74
2023/04/17 10:40:19;;;;;;;;;;;;;;;12.42;55.02;100539.92;106354;1256;72416;-74
2023/04/17 10:43:00;;;;;;;;;;;;;;;12.53;54.29;100536.58;106294;1256;61328;-77
2023/04/17 10:45:49;;;;;;;;;;;;;;;12.64;54.45;100536.98;105995;1259;61667;-74
2023/04/17 10:48:27;;;;;;;;;;;;;;;12.76;54.19;100532.45;105954;1261;73796;-77
2023/04/17 10:50:56;;;;;;;;;;;;;;;12.87;54.24;100530.86;106066;1261;67897;-74
2023/04/17 10:53:38;;;;;;;;;;;;;;;12.97;52.75;100531.35;106160;1261;74848;-77
2023/04/17 10:56:07;;;;;;;;;;;;;;;13.04;51.48;100531.14;105894;1256;61028;-76
2023/04/17 10:58:40;;;;;;;;;;;;;;;13.11;51.73;100533.48;106609;1256;61863;-75
2023/04/17 11:01:09;;;;;;;;;;;;;;;13.19;51.26;100536.61;106550;1258;75293;-72
2023/04/17 11:03:37;;;;;;;;;;;;;;;13.26;51.62;100534.60;106349;1256;67133;-75
2023/04/17 11:06:06;;;;;;;;;;;;;;;13.37;50.25;100532.61;106301;1260;74234;-74
2023/04/17 11:08:34;;;;;;;;;;;;;;;13.45;48.58;100529.23;106484;1256;60612;-73
2023/04/17 11:11:02;;;;;;;;;;;;;;;13.46;48.43;100531.71;106667;1256;60534;-76
2023/04/17 11:13:32;;;;;;;;;;;;;;;13.49;48.64;100525.98;105905;1256;73434;-76
2023/04/17 11:16:02;;;;;;;;;;;;;;;13.55;47.92;100525.36;105561;1258;68521;-71
2023/04/17 11:18:30;;;;;;;;;;;;;;;13.62;48.58;100522.65;105619;1256;73322;-74
2023/04/17 11:20:58;;;;;;;;;;;;;;;13.72;48.22;100521.00;105606;1256;61794;-76
2023/04/17 11:23:28;;;;;;;;;;;;;;;13.80;48.41;100516.69;105790;1256;60797;-77
2023/04/17 11:25:59;;;;;;;;;;;;;;;13.89;47.77;100516.20;105793;1256;74131;-76
2023/04/17 11:28:29;;;;;;;;;;;;;;;13.98;47.24;100515.83;105477;1256;69198;-74
2023/04/17 11:30:58;;;;;;;;;;;;;;;14.08;45.83;100508.80;105594;1258;72726;-76
2023/04/17 11:33:27;;;;;;;;;;;;;;;14.21;46.16;100506.14;105682;1257;60648;-78
2023/04/17 11:35:55;;;;;;;;;;;;;;;14.35;44.64;100503.97;105853;1260;59530;-78
2023/04/17 11:38:23;;;;;;;;;;;;;;;14.49;43.67;100502.02;105551;1261;75731;-74
2023/04/17 11:40:53;;;;;;;;;;;;;;;14.60;43.06;100502.02;105910;1259;67801;-75
2023/04/17 11:43:22;;;;;;;;;;;;;;;14.70;41.66;100497.46;105352;1259;74503;-76
2023/04/17 11:45:51;;;;;;;;;;;;;;;14.80;41.80;100487.58;105388;1257;60928;-76
2023/04/17 11:48:21;;;;;;;;;;;;;;;14.89;41.56;100487.98;105406;1256;60669;-77
2023/04/17 11:50:52;;;;;;;;;;;;;;;14.97;41.31;100483.66;106089;1260;73291;-77
2023/04/17 11:53:21;;;;;;;;;;;;;;;15.02;41.04;100480.40;105304;1261;67978;-75
2023/04/17 11:56:09;;;;;;;;;;;;;;;15.01;40.51;100481.90;105769;1256;72554;-79
2023/04/17 11:58:50;;;;;;;;;;;;;;;14.96;41.29;100481.86;105452;1256;60579;-73
2023/04/17 12:01:23;;;;;;;;;;;;;;;15.01;41.46;100478.50;105362;1260;60806;-71
2023/04/17 12:03:52;;;;;;;;;;;;;;;15.04;40.21;100473.91;105224;1261;74604;-74
2023/04/17 12:06:21;;;;;;;;;;;;;;;15.03;39.66;100470.38;105229;1259;67619;-71
2023/04/17 12:08:50;;;;;;;;;;;;;;;15.06;39.65;100467.31;105298;1260;73715;-74
2023/04/17 12:11:24;;;;;;;;;;;;;;;15.06;39.52;100472.04;105292;1258;60493;-69
2023/04/17 12:13:52;;;;;;;;;;;;;;;15.07;38.56;100472.63;105633;1259;60908;-69
2023/04/17 12:16:27;;;;;;;;;;;;;;;15.12;37.87;100469.58;105406;1259;75501;-74
2023/04/17 12:18:56;;;;;;;;;;;;;;;15.09;38.42;100467.23;105720;1261;68911;-70
2023/04/17 12:21:24;;;;;;;;;;;;;;;15.09;39.55;100467.07;105237;1256;72722;-73
2023/04/17 12:23:52;;;;;;;;;;;;;;;15.11;39.74;100462.84;105277;1261;59562;-73
2023/04/17 12:26:20;;;;;;;;;;;;;;;15.07;39.96;100460.81;105263;1257;60376;-71
2023/04/17 12:28:49;;;;;;;;;;;;;;;15.04;40.62;100462.69;105341;1261;75549;-72
2023/04/17 12:31:17;;;;;;;;;;;;;;;15.01;41.23;100466.09;105361;1260;67703;-73
2023/04/17 12:33:46;;;;;;;;;;;;;;;15.02;41.86;100465.61;106045;1259;73155;-73
2023/04/17 12:36:15;;;;;;;;;;;;;;;15.06;40.60;100466.01;105713;1256;60905;-73
2023/04/17 12:38:43;;;;;;;;;;;;;;;15.08;39.47;100462.39;105302;1260;61663;-73
2023/04/17 12:41:13;;;;;;;;;;;;;;;15.06;39.21;100462.00;105286;1260;76112;-75
2023/04/17 12:43:42;;;;;;;;;;;;;;;15.09;40.26;100463.59;105056;1264;67027;-72
2023/04/17 12:46:10;;;;;;;;;;;;;;;15.15;39.27;100458.49;105320;1260;73128;-73
2023/04/17 12:48:39;;;;;;;;;;;;;;;15.14;39.66;100458.60;105659;1256;60442;-69
2023/04/17 12:51:07;;;;;;;;;;;;;;;15.16;40.33;100460.39;105306;1256;61591;-71